Pleasant Plains, Illinois
Current Conditions -  °F | °C
As of 1:59 PM on Saturday 20 Dec 2014 (Local Time) from KSPI Reporting Station
Overcast Overcast  
Wind Chill: 33°   Ceiling: 3600
Heat Index: 38°   Visibility: 10mi
Dew Point: 30°   Wind: 7mph
Humidity: 73%   Direction: 180°S
Pressure: 30.23"   Gusts: NA
Location:  39.87°N, 89.92°W
Report Text: KSPI 201959Z 18006KT 10SM OVC036 03/M01 A3023 RMK AO2 T00331011
Loading
Personal Weather Stations






























Interactive Weather Map New forecast layout! Learn more

10-Day Weather Forecast

Advertisements
Track Severe Weather on mobile